Penguin Arrow — C6PA6 — position and weather

sailwx.info

Track history (hours):
 
Tides and Currents Weather Stations Pressure Air Temp Water Temp Dewpoint Dewpoint Depression Visibility Wind Speed Wind Dir Waves Ship Positions

Penguin Arrow

Last reported at 2015-Jan-07 19:20 UTC. Time now 2015-Jan-27 03:28 UTC.
Position N 51°01' E 001°27'.
Warning: this ship's position is 19 days out of date.

Length 200 m; draft 8.4 m.

Type: Cargo ship. MMSI: 309927000.

Date/timePositionNaut miles runAvg speedWind from/ knotsBaromVisibWave heightAir tempDewpointWater temp
2015-Jan-07 19:20N 51°01' E 001°27'810.9
2015-Jan-07 18:33N 51°07' E 001°36'1010.3
2015-Jan-07 17:33N 51°15' E 001°47'10 9.6
2015-Jan-07 16:33N 51°24' E 001°52'8 7.6
2015-Jan-07 15:34N 51°30' E 001°45'1212.3
2015-Jan-07 14:33N 51°28' E 001°25'1413.5
2015-Jan-07 13:33N 51°30' E 001°04'1211.9
2015-Jan-07 12:33N 51°27' E 000°45'1 0.7
2015-Jan-07 11:31N 51°26' E 000°45'0 0.0
2015-Jan-07 10:28N 51°26' E 000°45'0 0.0
2015-Jan-07 09:28N 51°26' E 000°45'0 0.0
2015-Jan-07 08:28N 51°26' E 000°45'0 0.0
2015-Jan-07 07:31N 51°26' E 000°45'0 0.0
2015-Jan-07 06:28N 51°26' E 000°45'0 0.0
2015-Jan-07 05:25N 51°26' E 000°45'0 0.0
2015-Jan-07 04:28N 51°26' E 000°45'0 0.0
2015-Jan-07 03:31N 51°26' E 000°45'0 0.0
2015-Jan-07 02:31N 51°26' E 000°45'0 0.0
2015-Jan-07 01:31N 51°26' E 000°45'0 0.0
2015-Jan-07 00:31N 51°26' E 000°45'0 0.0
2015-Jan-06 23:31N 51°26' E 000°45'0 0.0
2015-Jan-06 22:28N 51°26' E 000°45'0 0.0
2015-Jan-06 21:25N 51°26' E 000°45'0 0.0
2015-Jan-06 20:25N 51°26' E 000°45'0 0.0
2015-Jan-06 19:31N 51°26' E 000°45'0 0.0
2015-Jan-06 18:28N 51°26' E 000°45'0 0.0
2015-Jan-06 17:31N 51°26' E 000°45'0 0.0
2015-Jan-06 16:25N 51°26' E 000°45'0 0.0
2015-Jan-06 15:13N 51°26' E 000°45'0 0.0
2015-Jan-06 14:31N 51°26' E 000°45'0 0.0
2015-Jan-06 13:25N 51°26' E 000°45'0 0.0
2015-Jan-06 12:28N 51°26' E 000°45'0 0.0
2015-Jan-06 11:31N 51°26' E 000°45'0 0.0
2015-Jan-06 10:28N 51°26' E 000°45'0 0.0
2015-Jan-06 09:31N 51°26' E 000°45'0 0.0
2015-Jan-06 08:26N 51°26' E 000°45'0 0.0
2015-Jan-06 07:29N 51°26' E 000°45'0 0.0
2015-Jan-06 06:11N 51°26' E 000°45'0 0.0
2015-Jan-06 05:20N 51°26' E 000°45'0 0.0
2015-Jan-06 04:17N 51°26' E 000°45'0 0.0
2015-Jan-06 03:29N 51°26' E 000°45'0 0.0
2015-Jan-06 02:14N 51°26' E 000°45'0 0.0
2015-Jan-06 01:32N 51°26' E 000°45'7 6.7
2015-Jan-06 00:33N 51°29' E 000°54'1514.9
2015-Jan-05 23:33N 51°29' E 001°18'1211.6
2015-Jan-05 22:34N 51°29' E 001°37'1211.7
2015-Jan-05 21:33N 51°37' E 001°51'1212.2
2015-Jan-05 20:33N 51°27' E 002°01'1212.1
2015-Jan-05 19:32N 51°19' E 002°17'1313.5
2015-Jan-05 18:33N 51°23' E 002°38'1111.3
2015-Jan-05 17:33N 51°23' E 002°56'1612.4
2015-Jan-05 16:14N 51°25' E 003°22'913.4
2015-Jan-05 15:33N 51°26' E 003°36'5 4.4
2015-Jan-05 14:31N 51°27' E 003°43'0 0.0
2015-Jan-05 13:31N 51°27' E 003°43'0 0.0
2015-Jan-05 12:31N 51°27' E 003°43'0 0.0
2015-Jan-05 11:31N 51°27' E 003°43'0 0.0
2015-Jan-05 10:31N 51°27' E 003°43'0 0.0
2015-Jan-05 09:31N 51°27' E 003°43'0 0.0
2015-Jan-05 08:31N 51°27' E 003°43'0 0.0
2015-Jan-05 07:31N 51°27' E 003°43'0 0.0
2015-Jan-05 06:31N 51°27' E 003°43'0 0.0
2015-Jan-05 05:28N 51°27' E 003°43'0 0.0
2015-Jan-05 04:25N 51°27' E 003°43'0 0.0
2015-Jan-05 03:25N 51°27' E 003°43'0 0.0
2015-Jan-05 02:31N 51°27' E 003°43'0 0.0
2015-Jan-05 01:31N 51°27' E 003°43'0 0.0
2015-Jan-05 00:31N 51°27' E 003°43'0 0.0
2015-Jan-04 23:25N 51°27' E 003°43'0 0.0
2015-Jan-04 22:34N 51°27' E 003°43'0 0.0
2015-Jan-04 21:31N 51°27' E 003°43'0 0.0
2015-Jan-04 20:31N 51°27' E 003°43'0 0.0
2015-Jan-04 19:31N 51°27' E 003°43'0 0.0
2015-Jan-04 18:28N 51°27' E 003°43'0 0.0
2015-Jan-04 17:31N 51°27' E 003°43'0 0.0
2015-Jan-04 16:31N 51°27' E 003°43'0 0.0
2015-Jan-04 15:31N 51°27' E 003°43'0 0.0
2015-Jan-04 14:31N 51°27' E 003°43'0 0.0
2015-Jan-04 13:31N 51°27' E 003°43'0 0.0
2015-Jan-04 12:28N 51°27' E 003°43'0 0.0
2015-Jan-04 11:31N 51°27' E 003°43'0 0.0
2015-Jan-04 10:25N 51°27' E 003°43'0 0.0
2015-Jan-04 09:31N 51°27' E 003°43'0 0.0
2015-Jan-04 08:25N 51°27' E 003°43'0 0.0
2015-Jan-04 07:31N 51°27' E 003°43'0 0.0
2015-Jan-04 06:22N 51°27' E 003°43'0 0.0
2015-Jan-04 05:31N 51°27' E 003°43'0 0.0
2015-Jan-04 04:31N 51°27' E 003°43'0 0.0
2015-Jan-04 03:25N 51°27' E 003°43'0 0.0
2015-Jan-04 02:31N 51°27' E 003°43'0 0.0
2015-Jan-04 01:34N 51°27' E 003°43'0 0.0
2015-Jan-04 00:31N 51°27' E 003°43'0 0.0
2015-Jan-03 23:31N 51°27' E 003°43'0 0.0
2015-Jan-03 22:34N 51°27' E 003°43'0 0.0
2015-Jan-03 21:28N 51°27' E 003°43'0 0.0
2015-Jan-03 20:31N 51°27' E 003°43'0 0.0
2015-Jan-03 19:34N 51°27' E 003°43'0 0.0
2015-Jan-03 18:31N 51°27' E 003°43'0 0.0
2015-Jan-03 17:31N 51°27' E 003°43'0 0.0
2015-Jan-03 16:31N 51°27' E 003°43'0 0.0
2015-Jan-03 15:31N 51°27' E 003°43'0 0.0
2015-Jan-03 14:31N 51°27' E 003°43'0 0.0
2015-Jan-03 13:31N 51°27' E 003°43'0 0.0
2015-Jan-03 12:31N 51°27' E 003°43'0 0.0
2015-Jan-03 11:31N 51°27' E 003°43'0 0.0
2015-Jan-03 10:34N 51°27' E 003°43'0 0.0
2015-Jan-03 09:31N 51°27' E 003°43'0 0.0
2015-Jan-03 08:34N 51°27' E 003°43'0 0.0
2015-Jan-03 07:31N 51°27' E 003°43'0 0.0
2015-Jan-03 06:28N 51°27' E 003°43'0 0.0
2015-Jan-03 05:31N 51°27' E 003°43'0 0.0
2015-Jan-03 04:31N 51°27' E 003°43'0 0.0
2015-Jan-03 03:19N 51°27' E 003°43'0 0.0
2015-Jan-03 02:25N 51°27' E 003°43'0 0.0
2015-Jan-03 01:34N 51°27' E 003°43'0 0.0
2015-Jan-03 00:31N 51°27' E 003°43'0 0.0
2015-Jan-02 23:31N 51°27' E 003°43'0 0.0
2015-Jan-02 22:25N 51°27' E 003°43'0 0.0
2015-Jan-02 21:28N 51°27' E 003°43'0 0.0
2015-Jan-02 20:31N 51°27' E 003°43'0 0.0
2015-Jan-02 19:25N 51°27' E 003°43'0 0.0
2015-Jan-02 18:31N 51°27' E 003°43'0 0.0
2015-Jan-02 17:31N 51°27' E 003°43'0 0.0
2015-Jan-02 16:19N 51°27' E 003°43'0 0.0
2015-Jan-02 15:31N 51°27' E 003°43'0 0.0
2015-Jan-02 14:31N 51°27' E 003°43'0 0.0
2015-Jan-02 13:28N 51°27' E 003°43'0 0.0
2015-Jan-02 12:31N 51°27' E 003°43'0 0.0
2015-Jan-02 11:19N 51°27' E 003°43'0 0.0
2015-Jan-02 10:31N 51°27' E 003°43'0 0.0
2015-Jan-02 09:19N 51°27' E 003°43'0 0.0
2015-Jan-02 08:31N 51°27' E 003°43'0 0.0
2015-Jan-02 07:22N 51°27' E 003°43'0 0.0
2015-Jan-02 06:31N 51°27' E 003°43'0 0.0
2015-Jan-02 05:34N 51°27' E 003°43'0 0.0
2015-Jan-02 04:34N 51°27' E 003°43'0 0.0
2015-Jan-02 03:31N 51°27' E 003°43'0 0.0
2015-Jan-02 02:31N 51°27' E 003°43'0 0.0
2015-Jan-02 01:25N 51°27' E 003°43'0 0.0
2015-Jan-02 00:28N 51°27' E 003°43'0 0.0
2015-Jan-01 23:31N 51°27' E 003°43'0 0.0
2015-Jan-01 22:31N 51°27' E 003°43'0 0.0
2015-Jan-01 21:31N 51°27' E 003°43'0 0.0
2015-Jan-01 20:22N 51°27' E 003°43'0 0.0
2015-Jan-01 19:28N 51°27' E 003°43'0 0.0
2015-Jan-01 18:26N 51°27' E 003°43'0 0.0
2015-Jan-01 17:26N 51°27' E 003°43'0 0.0
2015-Jan-01 16:32N 51°27' E 003°43'0 0.0
2015-Jan-01 15:30N 51°27' E 003°43'0 0.0
2015-Jan-01 14:33N 51°27' E 003°43'0 0.0
2015-Jan-01 13:31N 51°27' E 003°43'0 0.0
2015-Jan-01 12:31N 51°27' E 003°43'0 0.0
2015-Jan-01 11:31N 51°27' E 003°43'0 0.0
2015-Jan-01 10:19N 51°27' E 003°43'0 0.0
2015-Jan-01 09:25N 51°27' E 003°43'0 0.0
2015-Jan-01 08:31N 51°27' E 003°43'0 0.0
2015-Jan-01 07:25N 51°27' E 003°43'0 0.0
2015-Jan-01 06:31N 51°27' E 003°43'0 0.0
2015-Jan-01 05:25N 51°27' E 003°43'0 0.0
2015-Jan-01 04:31N 51°27' E 003°43'0 0.0
2015-Jan-01 03:31N 51°27' E 003°43'0 0.0
2015-Jan-01 02:31N 51°27' E 003°43'0 0.0
2015-Jan-01 01:31N 51°27' E 003°43'0 0.0
2015-Jan-01 00:25N 51°27' E 003°43'0 0.0
2014-Dec-31 23:31N 51°27' E 003°43'0 0.0
2014-Dec-31 22:31N 51°27' E 003°43'0 0.0
2014-Dec-31 21:31N 51°27' E 003°43'0 0.0
2014-Dec-31 20:25N 51°27' E 003°43'0 0.0
2014-Dec-31 19:19N 51°27' E 003°43'0 0.0
2014-Dec-31 18:31N 51°27' E 003°43'0 0.0
2014-Dec-31 17:33N 51°27' E 003°43'2 1.7
2014-Dec-31 16:33N 51°27' E 003°40'10 9.7
2014-Dec-31 15:33N 51°25' E 003°25'1111.0
2014-Dec-31 14:33N 51°24' E 003°08'1211.7
2014-Dec-31 13:33N 51°25' E 002°49'9 8.9
2014-Dec-31 12:33N 51°22' E 002°36'2 2.3
2014-Dec-31 11:33N 51°24' E 002°35'0 0.0
2014-Dec-31 10:33N 51°24' E 002°35'0 0.0
2014-Dec-31 09:33N 51°24' E 002°35'0 0.0
2014-Dec-31 08:30N 51°24' E 002°35'0 0.0
2014-Dec-31 07:27N 51°24' E 002°35'0 0.1
2014-Dec-31 06:33N 51°24' E 002°35'0 0.2
2014-Dec-31 05:28N 51°24' E 002°35'0 0.0
2014-Dec-31 04:31N 51°24' E 002°35'0 0.0
2014-Dec-31 03:31N 51°24' E 002°35'0 0.0
2014-Dec-31 02:31N 51°24' E 002°35'0 0.0
2014-Dec-31 01:31N 51°24' E 002°35'0 0.2
2014-Dec-31 00:32N 51°24' E 002°35'0 0.1
2014-Dec-30 22:32N 51°24' E 002°35'0 0.0
2014-Dec-30 21:32N 51°24' E 002°35'0 0.0
2014-Dec-30 20:32N 51°24' E 002°35'0 0.0
2014-Dec-30 19:32N 51°24' E 002°35'0 0.1
2014-Dec-30 18:32N 51°24' E 002°35'0 0.1
2014-Dec-30 17:33N 51°24' E 002°35'0 0.2
2014-Dec-30 16:33N 51°24' E 002°35'0 0.0
2014-Dec-30 15:31N 51°24' E 002°35'2 2.1
2014-Dec-30 14:33N 51°22' E 002°34'8 7.7
2014-Dec-30 13:33N 51°20' E 002°22'1210.7
2014-Dec-30 12:24N 51°13' E 002°06'911.1
2014-Dec-30 11:34N 51°09' E 001°52'1111.2
2014-Dec-30 10:33N 51°02' E 001°39'  
Track history (hours):
 
Tides and Currents Weather Stations Pressure Air Temp Water Temp Dewpoint Dewpoint Depression Visibility Wind Speed Wind Dir Waves Ship Positions

Penguin Arrow

Last reported at 2015-Jan-07 19:20 UTC. Time now 2015-Jan-27 03:28 UTC.
Position N 51°01' E 001°27'.
Warning: this ship's position is 19 days out of date.

Length 200 m; draft 8.4 m.

Type: Cargo ship. MMSI: 309927000.

Date/timePositionNaut miles runAvg speedWind from/ knotsBaromVisibWave heightAir tempDewpointWater temp
2015-Jan-07 19:20N 51°01' E 001°27'810.9
2015-Jan-07 18:33N 51°07' E 001°36'1010.3
2015-Jan-07 17:33N 51°15' E 001°47'10 9.6
2015-Jan-07 16:33N 51°24' E 001°52'8 7.6
2015-Jan-07 15:34N 51°30' E 001°45'1212.3
2015-Jan-07 14:33N 51°28' E 001°25'1413.5
2015-Jan-07 13:33N 51°30' E 001°04'1211.9
2015-Jan-07 12:33N 51°27' E 000°45'1 0.7
2015-Jan-07 11:31N 51°26' E 000°45'0 0.0
2015-Jan-07 10:28N 51°26' E 000°45'0 0.0
2015-Jan-07 09:28N 51°26' E 000°45'0 0.0
2015-Jan-07 08:28N 51°26' E 000°45'0 0.0
2015-Jan-07 07:31N 51°26' E 000°45'0 0.0
2015-Jan-07 06:28N 51°26' E 000°45'0 0.0
2015-Jan-07 05:25N 51°26' E 000°45'0 0.0
2015-Jan-07 04:28N 51°26' E 000°45'0 0.0
2015-Jan-07 03:31N 51°26' E 000°45'0 0.0
2015-Jan-07 02:31N 51°26' E 000°45'0 0.0
2015-Jan-07 01:31N 51°26' E 000°45'0 0.0
2015-Jan-07 00:31N 51°26' E 000°45'0 0.0
2015-Jan-06 23:31N 51°26' E 000°45'0 0.0
2015-Jan-06 22:28N 51°26' E 000°45'0 0.0
2015-Jan-06 21:25N 51°26' E 000°45'0 0.0
2015-Jan-06 20:25N 51°26' E 000°45'0 0.0
2015-Jan-06 19:31N 51°26' E 000°45'0 0.0
2015-Jan-06 18:28N 51°26' E 000°45'0 0.0
2015-Jan-06 17:31N 51°26' E 000°45'0 0.0
2015-Jan-06 16:25N 51°26' E 000°45'0 0.0
2015-Jan-06 15:13N 51°26' E 000°45'0 0.0
2015-Jan-06 14:31N 51°26' E 000°45'0 0.0
2015-Jan-06 13:25N 51°26' E 000°45'0 0.0
2015-Jan-06 12:28N 51°26' E 000°45'0 0.0
2015-Jan-06 11:31N 51°26' E 000°45'0 0.0
2015-Jan-06 10:28N 51°26' E 000°45'0 0.0
2015-Jan-06 09:31N 51°26' E 000°45'0 0.0
2015-Jan-06 08:26N 51°26' E 000°45'0 0.0
2015-Jan-06 07:29N 51°26' E 000°45'0 0.0
2015-Jan-06 06:11N 51°26' E 000°45'0 0.0
2015-Jan-06 05:20N 51°26' E 000°45'0 0.0
2015-Jan-06 04:17N 51°26' E 000°45'0 0.0
2015-Jan-06 03:29N 51°26' E 000°45'0 0.0
2015-Jan-06 02:14N 51°26' E 000°45'0 0.0
2015-Jan-06 01:32N 51°26' E 000°45'7 6.7
2015-Jan-06 00:33N 51°29' E 000°54'1514.9
2015-Jan-05 23:33N 51°29' E 001°18'1211.6
2015-Jan-05 22:34N 51°29' E 001°37'1211.7
2015-Jan-05 21:33N 51°37' E 001°51'1212.2
2015-Jan-05 20:33N 51°27' E 002°01'1212.1
2015-Jan-05 19:32N 51°19' E 002°17'1313.5
2015-Jan-05 18:33N 51°23' E 002°38'1111.3
2015-Jan-05 17:33N 51°23' E 002°56'1612.4
2015-Jan-05 16:14N 51°25' E 003°22'913.4
2015-Jan-05 15:33N 51°26' E 003°36'5 4.4
2015-Jan-05 14:31N 51°27' E 003°43'0 0.0
2015-Jan-05 13:31N 51°27' E 003°43'0 0.0
2015-Jan-05 12:31N 51°27' E 003°43'0 0.0
2015-Jan-05 11:31N 51°27' E 003°43'0 0.0
2015-Jan-05 10:31N 51°27' E 003°43'0 0.0
2015-Jan-05 09:31N 51°27' E 003°43'0 0.0
2015-Jan-05 08:31N 51°27' E 003°43'0 0.0
2015-Jan-05 07:31N 51°27' E 003°43'0 0.0
2015-Jan-05 06:31N 51°27' E 003°43'0 0.0
2015-Jan-05 05:28N 51°27' E 003°43'0 0.0
2015-Jan-05 04:25N 51°27' E 003°43'0 0.0
2015-Jan-05 03:25N 51°27' E 003°43'0 0.0
2015-Jan-05 02:31N 51°27' E 003°43'0 0.0
2015-Jan-05 01:31N 51°27' E 003°43'0 0.0
2015-Jan-05 00:31N 51°27' E 003°43'0 0.0
2015-Jan-04 23:25N 51°27' E 003°43'0 0.0
2015-Jan-04 22:34N 51°27' E 003°43'0 0.0
2015-Jan-04 21:31N 51°27' E 003°43'0 0.0
2015-Jan-04 20:31N 51°27' E 003°43'0 0.0
2015-Jan-04 19:31N 51°27' E 003°43'0 0.0
2015-Jan-04 18:28N 51°27' E 003°43'0 0.0
2015-Jan-04 17:31N 51°27' E 003°43'0 0.0
2015-Jan-04 16:31N 51°27' E 003°43'0 0.0
2015-Jan-04 15:31N 51°27' E 003°43'0 0.0
2015-Jan-04 14:31N 51°27' E 003°43'0 0.0
2015-Jan-04 13:31N 51°27' E 003°43'0 0.0
2015-Jan-04 12:28N 51°27' E 003°43'0 0.0
2015-Jan-04 11:31N 51°27' E 003°43'0 0.0
2015-Jan-04 10:25N 51°27' E 003°43'0 0.0
2015-Jan-04 09:31N 51°27' E 003°43'0 0.0
2015-Jan-04 08:25N 51°27' E 003°43'0 0.0
2015-Jan-04 07:31N 51°27' E 003°43'0 0.0
2015-Jan-04 06:22N 51°27' E 003°43'0 0.0
2015-Jan-04 05:31N 51°27' E 003°43'0 0.0
2015-Jan-04 04:31N 51°27' E 003°43'0 0.0
2015-Jan-04 03:25N 51°27' E 003°43'0 0.0
2015-Jan-04 02:31N 51°27' E 003°43'0 0.0
2015-Jan-04 01:34N 51°27' E 003°43'0 0.0
2015-Jan-04 00:31N 51°27' E 003°43'0 0.0
2015-Jan-03 23:31N 51°27' E 003°43'0 0.0
2015-Jan-03 22:34N 51°27' E 003°43'0 0.0
2015-Jan-03 21:28N 51°27' E 003°43'0 0.0
2015-Jan-03 20:31N 51°27' E 003°43'0 0.0
2015-Jan-03 19:34N 51°27' E 003°43'0 0.0
2015-Jan-03 18:31N 51°27' E 003°43'0 0.0
2015-Jan-03 17:31N 51°27' E 003°43'0 0.0
2015-Jan-03 16:31N 51°27' E 003°43'0 0.0
2015-Jan-03 15:31N 51°27' E 003°43'0 0.0
2015-Jan-03 14:31N 51°27' E 003°43'0 0.0
2015-Jan-03 13:31N 51°27' E 003°43'0 0.0
2015-Jan-03 12:31N 51°27' E 003°43'0 0.0
2015-Jan-03 11:31N 51°27' E 003°43'0 0.0
2015-Jan-03 10:34N 51°27' E 003°43'0 0.0
2015-Jan-03 09:31N 51°27' E 003°43'0 0.0
2015-Jan-03 08:34N 51°27' E 003°43'0 0.0
2015-Jan-03 07:31N 51°27' E 003°43'0 0.0
2015-Jan-03 06:28N 51°27' E 003°43'0 0.0
2015-Jan-03 05:31N 51°27' E 003°43'0 0.0
2015-Jan-03 04:31N 51°27' E 003°43'0 0.0
2015-Jan-03 03:19N 51°27' E 003°43'0 0.0
2015-Jan-03 02:25N 51°27' E 003°43'0 0.0
2015-Jan-03 01:34N 51°27' E 003°43'0 0.0
2015-Jan-03 00:31N 51°27' E 003°43'0 0.0
2015-Jan-02 23:31N 51°27' E 003°43'0 0.0
2015-Jan-02 22:25N 51°27' E 003°43'0 0.0
2015-Jan-02 21:28N 51°27' E 003°43'0 0.0
2015-Jan-02 20:31N 51°27' E 003°43'0 0.0
2015-Jan-02 19:25N 51°27' E 003°43'0 0.0
2015-Jan-02 18:31N 51°27' E 003°43'0 0.0
2015-Jan-02 17:31N 51°27' E 003°43'0 0.0
2015-Jan-02 16:19N 51°27' E 003°43'0 0.0
2015-Jan-02 15:31N 51°27' E 003°43'0 0.0
2015-Jan-02 14:31N 51°27' E 003°43'0 0.0
2015-Jan-02 13:28N 51°27' E 003°43'0 0.0
2015-Jan-02 12:31N 51°27' E 003°43'0 0.0
2015-Jan-02 11:19N 51°27' E 003°43'0 0.0
2015-Jan-02 10:31N 51°27' E 003°43'0 0.0
2015-Jan-02 09:19N 51°27' E 003°43'0 0.0
2015-Jan-02 08:31N 51°27' E 003°43'0 0.0
2015-Jan-02 07:22N 51°27' E 003°43'0 0.0
2015-Jan-02 06:31N 51°27' E 003°43'0 0.0
2015-Jan-02 05:34N 51°27' E 003°43'0 0.0
2015-Jan-02 04:34N 51°27' E 003°43'0 0.0
2015-Jan-02 03:31N 51°27' E 003°43'0 0.0
2015-Jan-02 02:31N 51°27' E 003°43'0 0.0
2015-Jan-02 01:25N 51°27' E 003°43'0 0.0
2015-Jan-02 00:28N 51°27' E 003°43'0 0.0
2015-Jan-01 23:31N 51°27' E 003°43'0 0.0
2015-Jan-01 22:31N 51°27' E 003°43'0 0.0
2015-Jan-01 21:31N 51°27' E 003°43'0 0.0
2015-Jan-01 20:22N 51°27' E 003°43'0 0.0
2015-Jan-01 19:28N 51°27' E 003°43'0 0.0
2015-Jan-01 18:26N 51°27' E 003°43'0 0.0
2015-Jan-01 17:26N 51°27' E 003°43'0 0.0
2015-Jan-01 16:32N 51°27' E 003°43'0 0.0
2015-Jan-01 15:30N 51°27' E 003°43'0 0.0
2015-Jan-01 14:33N 51°27' E 003°43'0 0.0
2015-Jan-01 13:31N 51°27' E 003°43'0 0.0
2015-Jan-01 12:31N 51°27' E 003°43'0 0.0
2015-Jan-01 11:31N 51°27' E 003°43'0 0.0
2015-Jan-01 10:19N 51°27' E 003°43'0 0.0
2015-Jan-01 09:25N 51°27' E 003°43'0 0.0
2015-Jan-01 08:31N 51°27' E 003°43'0 0.0
2015-Jan-01 07:25N 51°27' E 003°43'0 0.0
2015-Jan-01 06:31N 51°27' E 003°43'0 0.0
2015-Jan-01 05:25N 51°27' E 003°43'0 0.0
2015-Jan-01 04:31N 51°27' E 003°43'0 0.0
2015-Jan-01 03:31N 51°27' E 003°43'0 0.0
2015-Jan-01 02:31N 51°27' E 003°43'0 0.0
2015-Jan-01 01:31N 51°27' E 003°43'0 0.0
2015-Jan-01 00:25N 51°27' E 003°43'0 0.0
2014-Dec-31 23:31N 51°27' E 003°43'0 0.0
2014-Dec-31 22:31N 51°27' E 003°43'0 0.0
2014-Dec-31 21:31N 51°27' E 003°43'0 0.0
2014-Dec-31 20:25N 51°27' E 003°43'0 0.0
2014-Dec-31 19:19N 51°27' E 003°43'0 0.0
2014-Dec-31 18:31N 51°27' E 003°43'0 0.0
2014-Dec-31 17:33N 51°27' E 003°43'2 1.7
2014-Dec-31 16:33N 51°27' E 003°40'10 9.7
2014-Dec-31 15:33N 51°25' E 003°25'1111.0
2014-Dec-31 14:33N 51°24' E 003°08'1211.7
2014-Dec-31 13:33N 51°25' E 002°49'9 8.9
2014-Dec-31 12:33N 51°22' E 002°36'2 2.3
2014-Dec-31 11:33N 51°24' E 002°35'0 0.0
2014-Dec-31 10:33N 51°24' E 002°35'0 0.0
2014-Dec-31 09:33N 51°24' E 002°35'0 0.0
2014-Dec-31 08:30N 51°24' E 002°35'0 0.0
2014-Dec-31 07:27N 51°24' E 002°35'0 0.1
2014-Dec-31 06:33N 51°24' E 002°35'0 0.2
2014-Dec-31 05:28N 51°24' E 002°35'0 0.0
2014-Dec-31 04:31N 51°24' E 002°35'0 0.0
2014-Dec-31 03:31N 51°24' E 002°35'0 0.0
2014-Dec-31 02:31N 51°24' E 002°35'0 0.0
2014-Dec-31 01:31N 51°24' E 002°35'0 0.2
2014-Dec-31 00:32N 51°24' E 002°35'0 0.1
2014-Dec-30 22:32N 51°24' E 002°35'0 0.0
2014-Dec-30 21:32N 51°24' E 002°35'0 0.0
2014-Dec-30 20:32N 51°24' E 002°35'0 0.0
2014-Dec-30 19:32N 51°24' E 002°35'0 0.1
2014-Dec-30 18:32N 51°24' E 002°35'0 0.1
2014-Dec-30 17:33N 51°24' E 002°35'0 0.2
2014-Dec-30 16:33N 51°24' E 002°35'0 0.0
2014-Dec-30 15:31N 51°24' E 002°35'2 2.1
2014-Dec-30 14:33N 51°22' E 002°34'8 7.7
2014-Dec-30 13:33N 51°20' E 002°22'1210.7
2014-Dec-30 12:24N 51°13' E 002°06'911.1
2014-Dec-30 11:34N 51°09' E 001°52'1111.2
2014-Dec-30 10:33N 51°02' E 001°39'  

Dump ship's entire track history